• Join FlightAware (Why Join?)
  • Login
  • US Flag 
03:29PM EST


 

Airport Tracker/Info


-or-


 

Live Flight TrackerFlight Track Log ✈ XSR387 ✈ 08-May-2013 ✈ KAAO - KMKC

Flight Track Log - Related Links

Times and Time Zones

All times are in EDT time to prevent confusion due to time zone crossing. See the XSR387 flight status page for this flight to view local times or setup timezone preferences in your user account.

Time Position Orientation Groundspeed Altitude Reporting Facility
EDT Latitude Longitude Course Direction KTS MPH feet Rate Location/Type
11:24PM 37.7586 -97.2189 42° Northeast 139 160 1,900  Level Kansas City Center
11:26PM 37.7956 -97.1772 42° Northeast 158 182 3,700 1,380 Climbing Kansas City Center
11:27PM 37.8097 -97.1228 72° East 163 188 5,300 1,500 Climbing Kansas City Center
11:28PM 37.8244 -97.0658 72° East 169 194 6,800 1,500 Climbing Kansas City Center
11:29PM 37.8453 -96.9944 70° East 180 207 8,400 1,380 Climbing Kansas City Center
11:30PM 37.8653 -96.9358 67° East 182 209 9,700 660 Climbing Kansas City Center
11:31PM 37.8881 -96.8717 66° East 200 230 9,800 -300 Climbing Kansas City Center
11:32PM 37.9097 -96.7875 72° East 248 285 9,100 -420 Descending Kansas City Center
11:33PM 37.9297 -96.7058 73° East 244 281 9,000  Descending Kansas City Center
11:34PM 37.9500 -96.6247 72° East 242 278 9,100  Climbing Kansas City Center
11:35PM 37.9789 -96.5444 65° Northeast 250 288 9,000 -60 Descending Kansas City Center
11:36PM 38.0083 -96.4672 64° Northeast 245 282 9,000  Level Kansas City Center
11:37PM 38.0397 -96.3908 62° Northeast 244 281 9,000  Level Kansas City Center
11:38PM 38.0736 -96.3153 60° Northeast 245 282 9,000  Level Kansas City Center
11:39PM 38.1069 -96.2419 60° Northeast 240 276 9,000  Level Kansas City Center
11:40PM 38.1100 -96.1617 87° East 228 262 9,000  Level Kansas City Center
11:41PM 38.0928 -96.0742 104° East 222 255 9,000  Level Kansas City Center
11:42PM 38.0792 -95.9967 103° East 234 269 9,000  Level Kansas City Center
11:43PM 38.0619 -95.9208 106° East 235 270 9,100  Climbing Kansas City Center
11:44PM 38.0428 -95.8292 105° East 237 273 9,000  Descending Kansas City Center
11:45PM 38.0428 -95.7481 90° East 249 287 9,100  Climbing Kansas City Center
11:46PM 38.0550 -95.6647 79° East 251 289 9,000  Descending Kansas City Center
11:47PM 38.0681 -95.5692 80° East 248 285 9,100  Climbing Kansas City Center
11:48PM 38.0792 -95.4878 80° East 246 283 9,000 -60 Descending Kansas City Center
11:49PM 38.1014 -95.4061 71° East 252 290 9,000  Level Kansas City Center
11:50PM 38.1278 -95.3150 70° East 248 285 9,000  Level Kansas City Center
11:51PM 38.1489 -95.2381 71° East 243 280 9,000  Level Kansas City Center
11:52PM 38.1703 -95.1608 71° East 242 278 9,000  Level Kansas City Center
11:53PM 38.1992 -95.0717 68° East 246 283 9,000  Level Kansas City Center
11:54PM 38.2369 -95.0000 56° Northeast 251 289 9,000  Level Kansas City Center
11:55PM 38.2717 -94.9264 59° Northeast 254 292 9,000  Level Kansas City Center
11:56PM 38.3108 -94.8361 61° Northeast 259 298 9,100 -60 Climbing Kansas City Center
11:57PM 38.3453 -94.7617 59° Northeast 256 295 8,900 -720 Descending Kansas City Center
11:58PM 38.3892 -94.6950 50° Northeast 258 297 7,700 -960 Descending Kansas City Center
11:59PM 38.4483 -94.6331 39° Northeast 249 287 7,000 -360 Descending Kansas City Center
12:00AM 38.5033 -94.6233 North 214 246 7,000  Level Kansas City Center
12:01AM 38.5617 -94.6236 360° North 221 254 7,000  Level Kansas City Center
12:02AM 38.6303 -94.6394 350° North 224 258 7,000 -120 Level Kansas City Center
12:03AM 38.6844 -94.6583 345° North 211 243 6,800 -780 Descending Kansas City Center
12:04AM 38.7458 -94.6736 349° North 230 265 5,500 -1,320 Descending Kansas City Center
12:05AM 38.8183 -94.6981 345° North 239 275 4,200 -840 Descending Kansas City Center
12:06AM 38.8736 -94.7097 351° North 211 243 3,900 -480 Descending Kansas City Center
12:07AM 38.9294 -94.7125 358° North 209 241 3,300 -420 Descending Kansas City Center
12:08AM 38.9917 -94.6903 16° North 205 236 3,100 -300 Descending Kansas City Center
12:09AM 39.0358 -94.6608 27° Northeast 191 220 2,800 -420 Descending Kansas City Center
12:10AM 39.0706 -94.6211 42° Northeast 175 201 2,300 -900 Descending Kansas City Center
12:11AM 39.1064 -94.5961 28° Northeast 137 158 1,100 -1,200 Descending Kansas City Center